sensor_id;sensor_type;location;lat;lon;timestamp;P1;durP1;ratioP1;P2;durP2;ratioP2
77775;SDS011;66965;43.328;6.668;2023-04-06T00:00:25;6.30;;;3.03;;
77775;SDS011;66965;43.328;6.668;2023-04-06T00:02:51;6.38;;;3.25;;
77775;SDS011;66965;43.328;6.668;2023-04-06T00:05:17;5.22;;;2.90;;
77775;SDS011;66965;43.328;6.668;2023-04-06T00:07:44;5.32;;;2.92;;
77775;SDS011;66965;43.328;6.668;2023-04-06T00:10:09;4.88;;;2.70;;
77775;SDS011;66965;43.328;6.668;2023-04-06T00:12:35;4.60;;;2.42;;
77775;SDS011;66965;43.328;6.668;2023-04-06T00:15:00;6.40;;;2.53;;
77775;SDS011;66965;43.328;6.668;2023-04-06T00:17:26;7.03;;;2.90;;
77775;SDS011;66965;43.328;6.668;2023-04-06T00:19:52;4.57;;;2.60;;
77775;SDS011;66965;43.328;6.668;2023-04-06T00:22:18;7.00;;;2.45;;
77775;SDS011;66965;43.328;6.668;2023-04-06T00:24:43;5.20;;;2.90;;
77775;SDS011;66965;43.328;6.668;2023-04-06T00:27:09;5.43;;;2.85;;
77775;SDS011;66965;43.328;6.668;2023-04-06T00:29:35;4.95;;;2.63;;
77775;SDS011;66965;43.328;6.668;2023-04-06T00:32:00;4.63;;;2.58;;
77775;SDS011;66965;43.328;6.668;2023-04-06T00:34:25;4.78;;;2.50;;
77775;SDS011;66965;43.328;6.668;2023-04-06T00:36:51;5.47;;;2.83;;
77775;SDS011;66965;43.328;6.668;2023-04-06T00:39:16;5.90;;;2.75;;
77775;SDS011;66965;43.328;6.668;2023-04-06T00:41:45;7.45;;;2.72;;
77775;SDS011;66965;43.328;6.668;2023-04-06T00:46:39;7.43;;;2.80;;
77775;SDS011;66965;43.328;6.668;2023-04-06T00:49:05;6.22;;;2.97;;
77775;SDS011;66965;43.328;6.668;2023-04-06T00:51:30;6.57;;;2.83;;
77775;SDS011;66965;43.328;6.668;2023-04-06T00:53:56;5.47;;;3.13;;
77775;SDS011;66965;43.328;6.668;2023-04-06T00:56:21;6.68;;;3.08;;
77775;SDS011;66965;43.328;6.668;2023-04-06T00:58:48;9.13;;;3.47;;
77775;SDS011;66965;43.328;6.668;2023-04-06T01:01:14;5.80;;;2.92;;
77775;SDS011;66965;43.328;6.668;2023-04-06T01:03:40;8.15;;;2.60;;
77775;SDS011;66965;43.328;6.668;2023-04-06T01:06:07;4.75;;;2.53;;
77775;SDS011;66965;43.328;6.668;2023-04-06T01:08:32;6.15;;;2.47;;
77775;SDS011;66965;43.328;6.668;2023-04-06T01:11:01;4.65;;;2.70;;
77775;SDS011;66965;43.328;6.668;2023-04-06T01:13:26;6.07;;;2.85;;
77775;SDS011;66965;43.328;6.668;2023-04-06T01:15:52;8.65;;;2.92;;
77775;SDS011;66965;43.328;6.668;2023-04-06T01:18:18;8.13;;;2.60;;
77775;SDS011;66965;43.328;6.668;2023-04-06T01:20:44;5.68;;;2.72;;
77775;SDS011;66965;43.328;6.668;2023-04-06T01:23:09;5.68;;;2.88;;
77775;SDS011;66965;43.328;6.668;2023-04-06T01:25:34;6.82;;;2.90;;
77775;SDS011;66965;43.328;6.668;2023-04-06T01:28:00;7.43;;;3.17;;
77775;SDS011;66965;43.328;6.668;2023-04-06T01:30:25;5.60;;;2.92;;
77775;SDS011;66965;43.328;6.668;2023-04-06T01:32:51;5.45;;;3.22;;
77775;SDS011;66965;43.328;6.668;2023-04-06T01:35:17;5.32;;;2.80;;
77775;SDS011;66965;43.328;6.668;2023-04-06T01:40:09;8.68;;;2.80;;
77775;SDS011;66965;43.328;6.668;2023-04-06T01:42:35;6.43;;;3.03;;
77775;SDS011;66965;43.328;6.668;2023-04-06T01:45:00;5.78;;;2.45;;
77775;SDS011;66965;43.328;6.668;2023-04-06T01:47:26;5.95;;;2.60;;
77775;SDS011;66965;43.328;6.668;2023-04-06T01:49:51;7.18;;;3.03;;
77775;SDS011;66965;43.328;6.668;2023-04-06T01:52:17;7.68;;;2.92;;
77775;SDS011;66965;43.328;6.668;2023-04-06T01:54:42;9.10;;;3.15;;
77775;SDS011;66965;43.328;6.668;2023-04-06T01:57:09;6.80;;;3.40;;
77775;SDS011;66965;43.328;6.668;2023-04-06T01:59:35;7.00;;;3.55;;
77775;SDS011;66965;43.328;6.668;2023-04-06T02:02:01;5.00;;;2.90;;
77775;SDS011;66965;43.328;6.668;2023-04-06T02:04:26;6.35;;;3.13;;
77775;SDS011;66965;43.328;6.668;2023-04-06T02:06:52;8.27;;;3.28;;
77775;SDS011;66965;43.328;6.668;2023-04-06T02:09:17;6.38;;;2.97;;
77775;SDS011;66965;43.328;6.668;2023-04-06T02:11:42;5.40;;;2.70;;
77775;SDS011;66965;43.328;6.668;2023-04-06T02:14:08;8.18;;;3.10;;
77775;SDS011;66965;43.328;6.668;2023-04-06T02:16:33;7.38;;;2.97;;
77775;SDS011;66965;43.328;6.668;2023-04-06T02:18:59;5.85;;;2.60;;
77775;SDS011;66965;43.328;6.668;2023-04-06T02:21:24;6.22;;;2.70;;
77775;SDS011;66965;43.328;6.668;2023-04-06T02:23:50;5.20;;;2.78;;
77775;SDS011;66965;43.328;6.668;2023-04-06T02:26:15;6.22;;;2.70;;
77775;SDS011;66965;43.328;6.668;2023-04-06T02:28:41;6.25;;;3.05;;
77775;SDS011;66965;43.328;6.668;2023-04-06T02:31:07;5.80;;;2.95;;
77775;SDS011;66965;43.328;6.668;2023-04-06T02:33:32;5.32;;;2.80;;
77775;SDS011;66965;43.328;6.668;2023-04-06T02:35:58;6.95;;;2.80;;
77775;SDS011;66965;43.328;6.668;2023-04-06T02:38:23;6.15;;;2.50;;
77775;SDS011;66965;43.328;6.668;2023-04-06T02:40:48;5.13;;;2.60;;
77775;SDS011;66965;43.328;6.668;2023-04-06T02:43:14;5.80;;;3.25;;
77775;SDS011;66965;43.328;6.668;2023-04-06T02:45:41;6.65;;;2.78;;
77775;SDS011;66965;43.328;6.668;2023-04-06T02:48:07;5.85;;;2.42;;
77775;SDS011;66965;43.328;6.668;2023-04-06T02:50:32;5.55;;;3.20;;
77775;SDS011;66965;43.328;6.668;2023-04-06T02:56:19;5.97;;;2.45;;
77775;SDS011;66965;43.328;6.668;2023-04-06T03:01:12;5.50;;;3.20;;
77775;SDS011;66965;43.328;6.668;2023-04-06T03:03:37;7.20;;;3.00;;
77775;SDS011;66965;43.328;6.668;2023-04-06T03:06:02;5.00;;;2.88;;
77775;SDS011;66965;43.328;6.668;2023-04-06T03:08:28;5.88;;;3.05;;
77775;SDS011;66965;43.328;6.668;2023-04-06T03:10:54;4.95;;;2.80;;
77775;SDS011;66965;43.328;6.668;2023-04-06T03:13:20;6.90;;;2.60;;
77775;SDS011;66965;43.328;6.668;2023-04-06T03:15:45;4.93;;;2.78;;
77775;SDS011;66965;43.328;6.668;2023-04-06T03:18:11;9.70;;;3.10;;
77775;SDS011;66965;43.328;6.668;2023-04-06T03:20:36;6.28;;;3.00;;
77775;SDS011;66965;43.328;6.668;2023-04-06T03:23:02;5.72;;;3.03;;
77775;SDS011;66965;43.328;6.668;2023-04-06T03:25:27;4.88;;;2.50;;
77775;SDS011;66965;43.328;6.668;2023-04-06T03:27:52;5.25;;;2.90;;
77775;SDS011;66965;43.328;6.668;2023-04-06T03:30:18;5.35;;;2.80;;
77775;SDS011;66965;43.328;6.668;2023-04-06T03:32:44;6.63;;;2.80;;
77775;SDS011;66965;43.328;6.668;2023-04-06T03:35:10;6.18;;;2.58;;
77775;SDS011;66965;43.328;6.668;2023-04-06T03:37:35;5.38;;;2.88;;
77775;SDS011;66965;43.328;6.668;2023-04-06T03:40:01;5.43;;;2.70;;
77775;SDS011;66965;43.328;6.668;2023-04-06T03:42:27;7.20;;;2.75;;
77775;SDS011;66965;43.328;6.668;2023-04-06T03:44:52;5.15;;;2.95;;
77775;SDS011;66965;43.328;6.668;2023-04-06T03:47:18;6.00;;;3.00;;
77775;SDS011;66965;43.328;6.668;2023-04-06T03:49:43;7.53;;;3.30;;
77775;SDS011;66965;43.328;6.668;2023-04-06T03:52:09;9.35;;;3.28;;
77775;SDS011;66965;43.328;6.668;2023-04-06T03:54:34;5.68;;;3.10;;
77775;SDS011;66965;43.328;6.668;2023-04-06T03:57:00;5.38;;;2.42;;
77775;SDS011;66965;43.328;6.668;2023-04-06T03:59:26;4.60;;;2.63;;
77775;SDS011;66965;43.328;6.668;2023-04-06T04:01:51;9.00;;;2.88;;
77775;SDS011;66965;43.328;6.668;2023-04-06T04:04:16;4.93;;;2.53;;
77775;SDS011;66965;43.328;6.668;2023-04-06T04:06:42;5.43;;;2.92;;
77775;SDS011;66965;43.328;6.668;2023-04-06T04:09:07;5.40;;;2.97;;
77775;SDS011;66965;43.328;6.668;2023-04-06T04:11:33;4.75;;;2.50;;
77775;SDS011;66965;43.328;6.668;2023-04-06T04:13:58;7.25;;;3.05;;
77775;SDS011;66965;43.328;6.668;2023-04-06T04:16:24;5.65;;;3.97;;
77775;SDS011;66965;43.328;6.668;2023-04-06T04:18:49;5.97;;;2.88;;
77775;SDS011;66965;43.328;6.668;2023-04-06T04:21:15;7.07;;;3.00;;
77775;SDS011;66965;43.328;6.668;2023-04-06T04:23:40;5.53;;;2.35;;
77775;SDS011;66965;43.328;6.668;2023-04-06T04:26:06;5.22;;;2.30;;
77775;SDS011;66965;43.328;6.668;2023-04-06T04:28:31;4.93;;;2.30;;
77775;SDS011;66965;43.328;6.668;2023-04-06T04:30:57;6.05;;;3.03;;
77775;SDS011;66965;43.328;6.668;2023-04-06T04:33:22;5.50;;;2.90;;
77775;SDS011;66965;43.328;6.668;2023-04-06T04:35:48;6.75;;;2.90;;
77775;SDS011;66965;43.328;6.668;2023-04-06T04:38:13;5.22;;;3.03;;
77775;SDS011;66965;43.328;6.668;2023-04-06T04:40:38;5.05;;;2.70;;
77775;SDS011;66965;43.328;6.668;2023-04-06T04:43:04;4.82;;;2.55;;
77775;SDS011;66965;43.328;6.668;2023-04-06T04:48:05;4.40;;;2.53;;
77775;SDS011;66965;43.328;6.668;2023-04-06T04:50:31;6.55;;;2.67;;
77775;SDS011;66965;43.328;6.668;2023-04-06T04:52:56;5.47;;;2.85;;
77775;SDS011;66965;43.328;6.668;2023-04-06T04:55:22;5.60;;;2.85;;
77775;SDS011;66965;43.328;6.668;2023-04-06T04:57:47;7.38;;;3.38;;
77775;SDS011;66965;43.328;6.668;2023-04-06T05:00:13;6.47;;;3.20;;
77775;SDS011;66965;43.328;6.668;2023-04-06T05:02:39;7.45;;;5.60;;
77775;SDS011;66965;43.328;6.668;2023-04-06T05:05:05;5.80;;;3.38;;
77775;SDS011;66965;43.328;6.668;2023-04-06T05:07:30;6.55;;;2.30;;
77775;SDS011;66965;43.328;6.668;2023-04-06T05:09:56;5.63;;;2.88;;
77775;SDS011;66965;43.328;6.668;2023-04-06T05:12:21;5.18;;;2.78;;
77775;SDS011;66965;43.328;6.668;2023-04-06T05:14:47;7.45;;;3.60;;
77775;SDS011;66965;43.328;6.668;2023-04-06T05:17:13;7.72;;;3.63;;
77775;SDS011;66965;43.328;6.668;2023-04-06T05:19:38;5.65;;;3.00;;
77775;SDS011;66965;43.328;6.668;2023-04-06T05:22:03;5.93;;;3.78;;
77775;SDS011;66965;43.328;6.668;2023-04-06T05:24:29;9.07;;;3.15;;
77775;SDS011;66965;43.328;6.668;2023-04-06T05:26:55;6.43;;;3.55;;
77775;SDS011;66965;43.328;6.668;2023-04-06T05:29:20;6.72;;;3.38;;
77775;SDS011;66965;43.328;6.668;2023-04-06T05:31:46;8.18;;;3.28;;
77775;SDS011;66965;43.328;6.668;2023-04-06T05:34:11;8.55;;;4.47;;
77775;SDS011;66965;43.328;6.668;2023-04-06T05:36:37;7.90;;;3.42;;
77775;SDS011;66965;43.328;6.668;2023-04-06T05:39:03;7.60;;;2.60;;
77775;SDS011;66965;43.328;6.668;2023-04-06T05:41:28;5.47;;;3.40;;
77775;SDS011;66965;43.328;6.668;2023-04-06T05:43:54;6.53;;;2.83;;
77775;SDS011;66965;43.328;6.668;2023-04-06T05:46:20;5.95;;;3.00;;
77775;SDS011;66965;43.328;6.668;2023-04-06T05:48:46;7.20;;;3.42;;
77775;SDS011;66965;43.328;6.668;2023-04-06T05:51:11;6.60;;;3.80;;
77775;SDS011;66965;43.328;6.668;2023-04-06T05:53:37;7.47;;;3.03;;
77775;SDS011;66965;43.328;6.668;2023-04-06T05:56:02;6.50;;;3.17;;
77775;SDS011;66965;43.328;6.668;2023-04-06T05:58:28;7.07;;;3.00;;
77775;SDS011;66965;43.328;6.668;2023-04-06T06:00:57;6.25;;;3.50;;
77775;SDS011;66965;43.328;6.668;2023-04-06T06:03:23;9.05;;;2.83;;
77775;SDS011;66965;43.328;6.668;2023-04-06T06:05:48;4.65;;;2.78;;
77775;SDS011;66965;43.328;6.668;2023-04-06T06:08:14;9.85;;;3.40;;
77775;SDS011;66965;43.328;6.668;2023-04-06T06:10:39;5.25;;;2.83;;
77775;SDS011;66965;43.328;6.668;2023-04-06T06:13:05;7.80;;;3.60;;
77775;SDS011;66965;43.328;6.668;2023-04-06T06:15:31;5.35;;;3.03;;
77775;SDS011;66965;43.328;6.668;2023-04-06T06:17:56;8.38;;;3.40;;
77775;SDS011;66965;43.328;6.668;2023-04-06T06:20:21;7.65;;;3.30;;
77775;SDS011;66965;43.328;6.668;2023-04-06T06:22:47;5.32;;;2.90;;
77775;SDS011;66965;43.328;6.668;2023-04-06T06:25:12;8.43;;;3.30;;
77775;SDS011;66965;43.328;6.668;2023-04-06T06:27:38;6.35;;;3.30;;
77775;SDS011;66965;43.328;6.668;2023-04-06T06:30:04;9.13;;;3.15;;
77775;SDS011;66965;43.328;6.668;2023-04-06T06:32:30;13.15;;;3.97;;
77775;SDS011;66965;43.328;6.668;2023-04-06T06:34:55;13.35;;;4.18;;
77775;SDS011;66965;43.328;6.668;2023-04-06T06:37:21;11.57;;;5.25;;
77775;SDS011;66965;43.328;6.668;2023-04-06T06:39:46;10.52;;;4.30;;
77775;SDS011;66965;43.328;6.668;2023-04-06T06:42:11;7.38;;;3.70;;
77775;SDS011;66965;43.328;6.668;2023-04-06T06:44:37;8.57;;;3.53;;
77775;SDS011;66965;43.328;6.668;2023-04-06T06:47:02;7.53;;;2.78;;
77775;SDS011;66965;43.328;6.668;2023-04-06T06:49:28;4.22;;;2.50;;
77775;SDS011;66965;43.328;6.668;2023-04-06T06:51:53;6.28;;;2.88;;
77775;SDS011;66965;43.328;6.668;2023-04-06T06:54:18;6.70;;;2.47;;
77775;SDS011;66965;43.328;6.668;2023-04-06T06:56:44;6.30;;;2.72;;
77775;SDS011;66965;43.328;6.668;2023-04-06T06:59:10;10.65;;;2.55;;
77775;SDS011;66965;43.328;6.668;2023-04-06T07:01:35;4.82;;;2.33;;
77775;SDS011;66965;43.328;6.668;2023-04-06T07:04:01;6.38;;;2.33;;
77775;SDS011;66965;43.328;6.668;2023-04-06T07:06:27;6.40;;;2.80;;
77775;SDS011;66965;43.328;6.668;2023-04-06T07:08:52;4.43;;;2.42;;
77775;SDS011;66965;43.328;6.668;2023-04-06T07:11:17;5.80;;;2.30;;
77775;SDS011;66965;43.328;6.668;2023-04-06T07:13:43;5.90;;;2.25;;
77775;SDS011;66965;43.328;6.668;2023-04-06T07:16:08;6.03;;;3.03;;
77775;SDS011;66965;43.328;6.668;2023-04-06T07:18:34;5.93;;;3.20;;
77775;SDS011;66965;43.328;6.668;2023-04-06T07:20:59;8.25;;;2.95;;
77775;SDS011;66965;43.328;6.668;2023-04-06T07:23:25;6.05;;;2.38;;
77775;SDS011;66965;43.328;6.668;2023-04-06T07:25:50;5.60;;;2.83;;
77775;SDS011;66965;43.328;6.668;2023-04-06T07:28:17;5.57;;;2.40;;
77775;SDS011;66965;43.328;6.668;2023-04-06T07:30:42;5.88;;;2.40;;
77775;SDS011;66965;43.328;6.668;2023-04-06T07:33:08;7.88;;;2.35;;
77775;SDS011;66965;43.328;6.668;2023-04-06T07:35:33;4.65;;;2.17;;
77775;SDS011;66965;43.328;6.668;2023-04-06T07:38:00;6.47;;;2.08;;
77775;SDS011;66965;43.328;6.668;2023-04-06T07:40:25;4.53;;;2.22;;
77775;SDS011;66965;43.328;6.668;2023-04-06T07:42:51;4.53;;;2.03;;
77775;SDS011;66965;43.328;6.668;2023-04-06T07:45:17;8.15;;;2.08;;
77775;SDS011;66965;43.328;6.668;2023-04-06T07:47:43;3.50;;;2.03;;
77775;SDS011;66965;43.328;6.668;2023-04-06T07:50:09;48.30;;;26.92;;
77775;SDS011;66965;43.328;6.668;2023-04-06T07:52:35;54.05;;;27.33;;
77775;SDS011;66965;43.328;6.668;2023-04-06T07:55:00;38.75;;;20.85;;
77775;SDS011;66965;43.328;6.668;2023-04-06T07:57:26;13.50;;;6.15;;
77775;SDS011;66965;43.328;6.668;2023-04-06T07:59:51;5.95;;;2.95;;
77775;SDS011;66965;43.328;6.668;2023-04-06T08:02:17;6.95;;;2.40;;
77775;SDS011;66965;43.328;6.668;2023-04-06T08:04:42;7.90;;;2.50;;
77775;SDS011;66965;43.328;6.668;2023-04-06T08:09:33;5.30;;;2.83;;
77775;SDS011;66965;43.328;6.668;2023-04-06T08:11:59;5.97;;;2.22;;
77775;SDS011;66965;43.328;6.668;2023-04-06T08:14:25;6.47;;;1.85;;
77775;SDS011;66965;43.328;6.668;2023-04-06T08:16:50;5.78;;;2.35;;
77775;SDS011;66965;43.328;6.668;2023-04-06T08:19:16;5.43;;;2.13;;
77775;SDS011;66965;43.328;6.668;2023-04-06T08:21:43;3.92;;;1.80;;
77775;SDS011;66965;43.328;6.668;2023-04-06T08:24:10;6.20;;;1.90;;
77775;SDS011;66965;43.328;6.668;2023-04-06T08:26:35;5.20;;;2.03;;
77775;SDS011;66965;43.328;6.668;2023-04-06T08:29:01;7.10;;;1.90;;
77775;SDS011;66965;43.328;6.668;2023-04-06T08:31:26;5.65;;;2.50;;
77775;SDS011;66965;43.328;6.668;2023-04-06T08:33:52;5.93;;;2.00;;
77775;SDS011;66965;43.328;6.668;2023-04-06T08:36:18;4.15;;;1.92;;
77775;SDS011;66965;43.328;6.668;2023-04-06T08:38:47;7.00;;;2.08;;
77775;SDS011;66965;43.328;6.668;2023-04-06T08:41:14;4.90;;;2.70;;
77775;SDS011;66965;43.328;6.668;2023-04-06T08:43:57;8.27;;;2.63;;
77775;SDS011;66965;43.328;6.668;2023-04-06T08:46:24;6.07;;;2.15;;
77775;SDS011;66965;43.328;6.668;2023-04-06T08:48:56;5.55;;;2.40;;
77775;SDS011;66965;43.328;6.668;2023-04-06T08:51:23;5.68;;;1.98;;
77775;SDS011;66965;43.328;6.668;2023-04-06T08:53:51;5.43;;;1.85;;
77775;SDS011;66965;43.328;6.668;2023-04-06T08:56:19;6.72;;;2.20;;
77775;SDS011;66965;43.328;6.668;2023-04-06T08:58:46;6.35;;;2.33;;
77775;SDS011;66965;43.328;6.668;2023-04-06T09:01:13;4.75;;;2.45;;
77775;SDS011;66965;43.328;6.668;2023-04-06T09:03:40;7.65;;;2.55;;
77775;SDS011;66965;43.328;6.668;2023-04-06T09:06:06;5.13;;;2.10;;
77775;SDS011;66965;43.328;6.668;2023-04-06T09:08:33;7.43;;;2.53;;
77775;SDS011;66965;43.328;6.668;2023-04-06T09:11:03;7.40;;;2.28;;
77775;SDS011;66965;43.328;6.668;2023-04-06T09:16:04;7.45;;;2.40;;
77775;SDS011;66965;43.328;6.668;2023-04-06T09:18:33;8.48;;;3.03;;
77775;SDS011;66965;43.328;6.668;2023-04-06T09:23:24;5.43;;;2.27;;
77775;SDS011;66965;43.328;6.668;2023-04-06T09:28:15;8.07;;;2.73;;
77775;SDS011;66965;43.328;6.668;2023-04-06T09:30:47;6.65;;;2.40;;
77775;SDS011;66965;43.328;6.668;2023-04-06T09:33:21;5.43;;;2.33;;
77775;SDS011;66965;43.328;6.668;2023-04-06T09:35:50;5.72;;;2.72;;
77775;SDS011;66965;43.328;6.668;2023-04-06T09:38:16;10.77;;;2.65;;
77775;SDS011;66965;43.328;6.668;2023-04-06T09:43:34;5.82;;;2.60;;
77775;SDS011;66965;43.328;6.668;2023-04-06T09:46:00;5.40;;;2.33;;
77775;SDS011;66965;43.328;6.668;2023-04-06T09:48:28;5.40;;;2.22;;
77775;SDS011;66965;43.328;6.668;2023-04-06T09:50:57;4.47;;;2.20;;
77775;SDS011;66965;43.328;6.668;2023-04-06T09:53:28;4.65;;;2.40;;
77775;SDS011;66965;43.328;6.668;2023-04-06T09:55:56;6.72;;;2.55;;
77775;SDS011;66965;43.328;6.668;2023-04-06T09:58:26;4.80;;;2.30;;
77775;SDS011;66965;43.328;6.668;2023-04-06T10:04:01;4.95;;;2.38;;
77775;SDS011;66965;43.328;6.668;2023-04-06T10:06:31;6.15;;;2.42;;
77775;SDS011;66965;43.328;6.668;2023-04-06T10:09:00;8.23;;;2.30;;
77775;SDS011;66965;43.328;6.668;2023-04-06T10:11:29;5.22;;;2.10;;
77775;SDS011;66965;43.328;6.668;2023-04-06T10:13:56;8.68;;;2.28;;
77775;SDS011;66965;43.328;6.668;2023-04-06T10:16:22;7.93;;;2.25;;
77775;SDS011;66965;43.328;6.668;2023-04-06T10:18:50;5.60;;;1.98;;
77775;SDS011;66965;43.328;6.668;2023-04-06T10:21:20;5.50;;;1.88;;
77775;SDS011;66965;43.328;6.668;2023-04-06T10:23:51;11.10;;;2.30;;
77775;SDS011;66965;43.328;6.668;2023-04-06T10:26:22;5.93;;;2.00;;
77775;SDS011;66965;43.328;6.668;2023-04-06T10:28:48;5.78;;;1.85;;
77775;SDS011;66965;43.328;6.668;2023-04-06T10:31:14;4.68;;;1.70;;
77775;SDS011;66965;43.328;6.668;2023-04-06T10:33:40;6.05;;;1.60;;
77775;SDS011;66965;43.328;6.668;2023-04-06T10:36:21;5.43;;;1.80;;
77775;SDS011;66965;43.328;6.668;2023-04-06T10:38:53;4.20;;;1.67;;
77775;SDS011;66965;43.328;6.668;2023-04-06T10:41:22;5.35;;;1.55;;
77775;SDS011;66965;43.328;6.668;2023-04-06T10:43:54;4.60;;;1.50;;
77775;SDS011;66965;43.328;6.668;2023-04-06T10:46:29;4.20;;;1.60;;
77775;SDS011;66965;43.328;6.668;2023-04-06T10:48:56;6.03;;;1.90;;
77775;SDS011;66965;43.328;6.668;2023-04-06T10:51:26;6.75;;;2.17;;
77775;SDS011;66965;43.328;6.668;2023-04-06T10:53:53;10.10;;;1.80;;
77775;SDS011;66965;43.328;6.668;2023-04-06T10:56:21;3.72;;;1.67;;
77775;SDS011;66965;43.328;6.668;2023-04-06T10:58:53;4.60;;;1.75;;
77775;SDS011;66965;43.328;6.668;2023-04-06T11:01:23;7.70;;;1.70;;
77775;SDS011;66965;43.328;6.668;2023-04-06T11:03:52;4.65;;;1.58;;
77775;SDS011;66965;43.328;6.668;2023-04-06T11:06:27;5.82;;;1.73;;
77775;SDS011;66965;43.328;6.668;2023-04-06T11:08:56;4.22;;;1.63;;
77775;SDS011;66965;43.328;6.668;2023-04-06T11:11:22;3.95;;;1.60;;
77775;SDS011;66965;43.328;6.668;2023-04-06T11:16:20;6.10;;;1.95;;
77775;SDS011;66965;43.328;6.668;2023-04-06T11:18:52;5.65;;;2.00;;
77775;SDS011;66965;43.328;6.668;2023-04-06T11:21:19;5.05;;;1.70;;
77775;SDS011;66965;43.328;6.668;2023-04-06T11:23:45;4.57;;;1.48;;
77775;SDS011;66965;43.328;6.668;2023-04-06T11:26:11;5.47;;;1.80;;
77775;SDS011;66965;43.328;6.668;2023-04-06T11:28:38;5.50;;;2.08;;
77775;SDS011;66965;43.328;6.668;2023-04-06T11:31:05;6.18;;;2.72;;
77775;SDS011;66965;43.328;6.668;2023-04-06T11:33:35;5.40;;;1.63;;
77775;SDS011;66965;43.328;6.668;2023-04-06T11:36:02;5.95;;;2.03;;
77775;SDS011;66965;43.328;6.668;2023-04-06T11:38:28;4.60;;;1.95;;
77775;SDS011;66965;43.328;6.668;2023-04-06T11:40:53;6.05;;;2.17;;
77775;SDS011;66965;43.328;6.668;2023-04-06T11:43:25;5.80;;;2.25;;
77775;SDS011;66965;43.328;6.668;2023-04-06T11:46:01;5.53;;;2.10;;
77775;SDS011;66965;43.328;6.668;2023-04-06T11:48:28;5.07;;;1.65;;
77775;SDS011;66965;43.328;6.668;2023-04-06T11:50:57;5.20;;;1.80;;
77775;SDS011;66965;43.328;6.668;2023-04-06T11:53:26;9.30;;;2.60;;
77775;SDS011;66965;43.328;6.668;2023-04-06T11:55:53;6.20;;;2.10;;
77775;SDS011;66965;43.328;6.668;2023-04-06T11:58:18;5.38;;;2.20;;
77775;SDS011;66965;43.328;6.668;2023-04-06T12:03:13;5.78;;;2.15;;
77775;SDS011;66965;43.328;6.668;2023-04-06T12:05:39;5.15;;;2.15;;
77775;SDS011;66965;43.328;6.668;2023-04-06T12:08:05;5.70;;;2.05;;
77775;SDS011;66965;43.328;6.668;2023-04-06T12:10:30;3.83;;;1.70;;
77775;SDS011;66965;43.328;6.668;2023-04-06T12:12:56;3.75;;;1.83;;
77775;SDS011;66965;43.328;6.668;2023-04-06T12:15:21;4.63;;;2.40;;
77775;SDS011;66965;43.328;6.668;2023-04-06T12:20:13;4.68;;;2.08;;
77775;SDS011;66965;43.328;6.668;2023-04-06T12:22:39;4.53;;;2.08;;
77775;SDS011;66965;43.328;6.668;2023-04-06T12:27:31;4.78;;;1.95;;
77775;SDS011;66965;43.328;6.668;2023-04-06T12:29:58;5.45;;;1.88;;
77775;SDS011;66965;43.328;6.668;2023-04-06T12:32:23;4.90;;;1.88;;
77775;SDS011;66965;43.328;6.668;2023-04-06T12:37:16;5.07;;;2.20;;
77775;SDS011;66965;43.328;6.668;2023-04-06T12:39:41;5.03;;;1.90;;
77775;SDS011;66965;43.328;6.668;2023-04-06T12:42:09;5.57;;;2.30;;
77775;SDS011;66965;43.328;6.668;2023-04-06T12:47:00;4.73;;;1.63;;
77775;SDS011;66965;43.328;6.668;2023-04-06T12:51:51;4.33;;;1.73;;
77775;SDS011;66965;43.328;6.668;2023-04-06T12:56:42;4.60;;;1.60;;
77775;SDS011;66965;43.328;6.668;2023-04-06T12:59:07;4.15;;;1.95;;
77775;SDS011;66965;43.328;6.668;2023-04-06T13:01:33;4.07;;;1.50;;
77775;SDS011;66965;43.328;6.668;2023-04-06T13:03:58;4.53;;;1.65;;
77775;SDS011;66965;43.328;6.668;2023-04-06T13:06:24;4.05;;;1.67;;
77775;SDS011;66965;43.328;6.668;2023-04-06T13:08:52;5.75;;;1.75;;
77775;SDS011;66965;43.328;6.668;2023-04-06T13:11:18;4.00;;;1.65;;
77775;SDS011;66965;43.328;6.668;2023-04-06T13:13:45;4.55;;;1.67;;
77775;SDS011;66965;43.328;6.668;2023-04-06T13:16:11;4.38;;;1.85;;
77775;SDS011;66965;43.328;6.668;2023-04-06T13:18:36;4.75;;;1.63;;
77775;SDS011;66965;43.328;6.668;2023-04-06T13:21:03;6.20;;;1.77;;
77775;SDS011;66965;43.328;6.668;2023-04-06T13:23:32;8.43;;;1.92;;
77775;SDS011;66965;43.328;6.668;2023-04-06T13:26:02;5.72;;;1.90;;
77775;SDS011;66965;43.328;6.668;2023-04-06T13:28:32;4.18;;;1.45;;
77775;SDS011;66965;43.328;6.668;2023-04-06T13:30:59;4.97;;;1.70;;
77775;SDS011;66965;43.328;6.668;2023-04-06T13:33:26;5.28;;;1.85;;
77775;SDS011;66965;43.328;6.668;2023-04-06T13:35:52;5.13;;;1.60;;
77775;SDS011;66965;43.328;6.668;2023-04-06T13:38:17;5.65;;;1.92;;
77775;SDS011;66965;43.328;6.668;2023-04-06T13:40:43;5.85;;;1.92;;
77775;SDS011;66965;43.328;6.668;2023-04-06T13:43:09;8.18;;;2.22;;
77775;SDS011;66965;43.328;6.668;2023-04-06T13:45:35;12.15;;;2.00;;
77775;SDS011;66965;43.328;6.668;2023-04-06T13:48:00;5.40;;;2.08;;
77775;SDS011;66965;43.328;6.668;2023-04-06T13:50:26;4.05;;;1.70;;
77775;SDS011;66965;43.328;6.668;2023-04-06T13:52:52;6.68;;;1.70;;
77775;SDS011;66965;43.328;6.668;2023-04-06T13:55:17;4.53;;;1.80;;
77775;SDS011;66965;43.328;6.668;2023-04-06T13:57:43;6.50;;;1.98;;
77775;SDS011;66965;43.328;6.668;2023-04-06T14:00:08;5.97;;;2.08;;
77775;SDS011;66965;43.328;6.668;2023-04-06T14:02:36;4.47;;;1.83;;
77775;SDS011;66965;43.328;6.668;2023-04-06T14:05:01;5.70;;;2.00;;
77775;SDS011;66965;43.328;6.668;2023-04-06T14:07:28;5.72;;;2.20;;
77775;SDS011;66965;43.328;6.668;2023-04-06T14:09:53;6.55;;;1.73;;
77775;SDS011;66965;43.328;6.668;2023-04-06T14:12:19;9.15;;;1.73;;
77775;SDS011;66965;43.328;6.668;2023-04-06T14:14:44;4.57;;;1.88;;
77775;SDS011;66965;43.328;6.668;2023-04-06T14:17:10;5.47;;;2.10;;
77775;SDS011;66965;43.328;6.668;2023-04-06T14:19:35;4.47;;;1.90;;
77775;SDS011;66965;43.328;6.668;2023-04-06T14:22:01;6.78;;;2.40;;
77775;SDS011;66965;43.328;6.668;2023-04-06T14:24:26;5.32;;;2.50;;
77775;SDS011;66965;43.328;6.668;2023-04-06T14:26:52;7.47;;;1.98;;
77775;SDS011;66965;43.328;6.668;2023-04-06T14:29:17;6.78;;;1.90;;
77775;SDS011;66965;43.328;6.668;2023-04-06T14:31:44;7.53;;;2.25;;
77775;SDS011;66965;43.328;6.668;2023-04-06T14:34:12;7.13;;;2.08;;
77775;SDS011;66965;43.328;6.668;2023-04-06T14:36:37;7.93;;;1.65;;
77775;SDS011;66965;43.328;6.668;2023-04-06T14:39:06;3.78;;;1.73;;
77775;SDS011;66965;43.328;6.668;2023-04-06T14:41:32;5.18;;;2.00;;
77775;SDS011;66965;43.328;6.668;2023-04-06T14:43:59;3.60;;;1.80;;
77775;SDS011;66965;43.328;6.668;2023-04-06T14:46:25;5.18;;;2.00;;
77775;SDS011;66965;43.328;6.668;2023-04-06T14:48:51;4.20;;;2.10;;
77775;SDS011;66965;43.328;6.668;2023-04-06T14:51:19;6.30;;;1.75;;
77775;SDS011;66965;43.328;6.668;2023-04-06T14:53:44;6.13;;;1.77;;
77775;SDS011;66965;43.328;6.668;2023-04-06T14:56:10;6.70;;;2.05;;
77775;SDS011;66965;43.328;6.668;2023-04-06T14:58:35;7.25;;;2.15;;
77775;SDS011;66965;43.328;6.668;2023-04-06T15:01:01;4.28;;;2.05;;
77775;SDS011;66965;43.328;6.668;2023-04-06T15:05:53;6.53;;;2.33;;
77775;SDS011;66965;43.328;6.668;2023-04-06T15:08:20;4.15;;;2.05;;
77775;SDS011;66965;43.328;6.668;2023-04-06T15:10:47;5.75;;;1.85;;
77775;SDS011;66965;43.328;6.668;2023-04-06T15:13:13;4.40;;;1.80;;
77775;SDS011;66965;43.328;6.668;2023-04-06T15:15:40;4.93;;;1.88;;
77775;SDS011;66965;43.328;6.668;2023-04-06T15:18:05;4.85;;;2.17;;
77775;SDS011;66965;43.328;6.668;2023-04-06T15:20:31;4.20;;;1.95;;
77775;SDS011;66965;43.328;6.668;2023-04-06T15:22:57;7.32;;;2.22;;
77775;SDS011;66965;43.328;6.668;2023-04-06T15:25:22;4.10;;;1.90;;
77775;SDS011;66965;43.328;6.668;2023-04-06T15:27:48;4.13;;;2.03;;
77775;SDS011;66965;43.328;6.668;2023-04-06T15:30:13;4.75;;;2.00;;
77775;SDS011;66965;43.328;6.668;2023-04-06T15:32:39;5.95;;;2.03;;